createdAt,value
2022-12-03T00:00:56.274Z,29.35
2022-12-03T00:03:23.516Z,29.60
2022-12-03T00:05:50.687Z,29.23
2022-12-03T00:08:17.745Z,30.08
2022-12-03T00:10:44.750Z,31.33
2022-12-03T00:13:11.765Z,29.42
2022-12-03T00:15:38.766Z,28.25
2022-12-03T00:18:05.871Z,29.90
2022-12-03T00:20:32.844Z,30.52
2022-12-03T00:22:59.704Z,29.55
2022-12-03T00:25:26.814Z,29.80
2022-12-03T00:27:53.685Z,30.02
2022-12-03T00:30:20.951Z,29.45
2022-12-03T00:32:47.851Z,29.98
2022-12-03T00:35:14.862Z,29.73
2022-12-03T00:37:41.811Z,31.15
2022-12-03T00:40:10.903Z,30.65
2022-12-03T00:42:37.812Z,31.77
2022-12-03T00:45:05.459Z,31.13
2022-12-03T00:47:32.399Z,31.17
2022-12-03T00:49:59.490Z,32.35
2022-12-03T00:52:26.383Z,31.23
2022-12-03T00:54:53.648Z,31.98
2022-12-03T00:57:20.764Z,32.55
2022-12-03T00:59:47.672Z,31.63
2022-12-03T01:02:14.627Z,31.48
2022-12-03T01:04:41.887Z,31.83
2022-12-03T01:07:08.877Z,29.70
2022-12-03T01:09:35.840Z,31.23
2022-12-03T01:12:02.789Z,30.83
2022-12-03T01:26:11.298Z,34.88
2022-12-03T01:28:38.206Z,31.52
2022-12-03T01:31:24.044Z,31.42
2022-12-03T01:33:51.004Z,31.27
2022-12-03T01:36:18.015Z,30.17
2022-12-03T01:38:44.963Z,30.65
2022-12-03T01:41:12.212Z,32.25
2022-12-03T01:43:39.304Z,30.15
2022-12-03T01:46:06.595Z,31.08
2022-12-03T01:48:37.468Z,32.05
2022-12-03T01:51:04.891Z,31.20
2022-12-03T01:53:31.955Z,31.27
2022-12-03T01:55:58.911Z,31.80
2022-12-03T01:58:29.884Z,32.25
2022-12-03T02:01:10.237Z,33.03
2022-12-03T02:03:37.542Z,32.63
2022-12-03T02:06:06.390Z,32.17
2022-12-03T02:08:37.433Z,30.25
2022-12-03T02:11:19.133Z,31.20
2022-12-03T02:13:50.670Z,30.05
2022-12-03T02:16:17.974Z,31.58
2022-12-03T02:18:45.322Z,30.50
2022-12-03T02:21:39.891Z,29.38
2022-12-03T02:24:26.081Z,28.40
2022-12-03T02:26:53.089Z,30.17
2022-12-03T02:29:20.083Z,29.73
2022-12-03T02:31:47.250Z,29.75
2022-12-03T02:34:42.159Z,29.85
2022-12-03T02:37:15.919Z,27.85
2022-12-03T02:39:48.252Z,28.10
2022-12-03T02:42:33.803Z,28.83
2022-12-03T02:45:11.423Z,25.67
2022-12-03T02:47:46.350Z,25.77
2022-12-03T02:50:18.972Z,28.02
2022-12-03T02:52:47.899Z,29.30
2022-12-03T02:55:17.865Z,29.88
2022-12-03T02:57:49.215Z,28.90
2022-12-03T03:00:18.573Z,30.23
2022-12-03T03:02:47.227Z,28.55
2022-12-03T03:05:16.428Z,27.95
2022-12-03T03:07:43.694Z,30.13
2022-12-03T03:10:16.342Z,30.58
2022-12-03T03:12:43.568Z,29.55
2022-12-03T03:15:12.220Z,29.80
2022-12-03T03:17:39.777Z,26.90
2022-12-03T03:20:09.780Z,30.75
2022-12-03T03:22:40.524Z,30.95
2022-12-03T03:25:13.839Z,30.20
2022-12-03T03:27:41.932Z,27.15
2022-12-03T03:30:11.443Z,28.88
2022-12-03T03:32:40.097Z,27.70
2022-12-03T03:35:08.533Z,31.15
2022-12-03T03:37:35.575Z,30.23
2022-12-03T03:40:02.959Z,28.95
2022-12-03T03:42:29.932Z,28.13
2022-12-03T03:44:58.091Z,28.27
2022-12-03T03:47:25.719Z,29.90
2022-12-03T03:49:53.217Z,30.02
2022-12-03T03:52:20.868Z,29.05
2022-12-03T03:54:48.233Z,30.90
2022-12-03T03:57:15.267Z,28.73
2022-12-03T03:59:42.483Z,31.35
2022-12-03T04:02:22.651Z,30.50
2022-12-03T04:04:51.154Z,28.60
2022-12-03T04:07:18.287Z,29.60
2022-12-03T04:09:45.596Z,30.80
2022-12-03T04:12:31.935Z,29.30
2022-12-03T04:14:59.259Z,29.73
2022-12-03T04:17:26.355Z,29.55
2022-12-03T04:19:53.317Z,31.00
2022-12-03T04:22:39.110Z,29.10
2022-12-03T04:25:27.219Z,27.98
2022-12-03T04:28:12.795Z,29.20
2022-12-03T04:30:40.031Z,29.33
2022-12-03T04:33:25.573Z,29.92
2022-12-03T04:35:53.408Z,29.10
2022-12-03T04:38:20.380Z,29.98
2022-12-03T04:41:04.159Z,27.77
2022-12-03T04:43:56.123Z,28.70
2022-12-03T04:46:23.160Z,28.80
2022-12-03T04:48:50.156Z,28.35
2022-12-03T04:51:17.022Z,29.60
2022-12-03T04:53:46.270Z,30.45
2022-12-03T04:56:13.523Z,28.45
2022-12-03T04:58:40.463Z,29.52
2022-12-03T05:01:07.369Z,28.92
2022-12-03T05:03:34.369Z,29.52
2022-12-03T05:06:01.289Z,29.17
2022-12-03T05:08:28.207Z,29.88
2022-12-03T05:10:55.085Z,28.73
2022-12-03T05:13:21.972Z,28.52
2022-12-03T05:15:48.875Z,28.25
2022-12-03T05:18:15.787Z,28.13
2022-12-03T05:20:44.759Z,28.70
2022-12-03T05:23:16.654Z,27.08
2022-12-03T05:25:43.667Z,27.45
2022-12-03T05:28:10.634Z,26.27
2022-12-03T05:30:37.814Z,26.52
2022-12-03T05:33:04.853Z,28.27
2022-12-03T05:35:31.864Z,26.40
2022-12-03T05:37:58.866Z,27.10
2022-12-03T05:40:25.925Z,27.52
2022-12-03T05:42:56.940Z,26.02
2022-12-03T05:45:34.583Z,26.58
2022-12-03T05:48:03.087Z,25.95
2022-12-03T05:50:34.311Z,25.80
2022-12-03T05:53:01.399Z,24.27
2022-12-03T05:55:29.225Z,25.42
2022-12-03T05:57:56.654Z,25.42
2022-12-03T06:00:28.268Z,26.02
2022-12-03T06:02:56.048Z,26.40
2022-12-03T06:17:55.739Z,30.40
2022-12-03T06:20:22.703Z,28.80
2022-12-03T06:22:50.483Z,26.75
2022-12-03T06:25:17.695Z,27.33
2022-12-03T06:27:45.117Z,28.38
2022-12-03T06:30:14.339Z,28.48
2022-12-03T06:32:41.559Z,25.23
2022-12-03T06:35:12.061Z,28.02
2022-12-03T06:37:38.985Z,26.88
2022-12-03T06:40:07.055Z,27.63
2022-12-03T06:42:33.932Z,26.60
2022-12-03T06:45:00.856Z,26.92
2022-12-03T06:47:27.771Z,28.15
2022-12-03T06:49:54.703Z,27.60
2022-12-03T06:52:21.639Z,29.98
2022-12-03T06:54:48.584Z,29.17
2022-12-03T06:57:15.565Z,29.20
2022-12-03T06:59:42.507Z,29.25
2022-12-03T07:02:12.399Z,29.02
2022-12-03T07:04:44.690Z,30.52
2022-12-03T07:07:13.577Z,31.60
2022-12-03T07:09:40.507Z,31.48
2022-12-03T07:12:07.557Z,30.45
2022-12-03T07:14:34.604Z,30.35
2022-12-03T07:17:01.528Z,29.17
2022-12-03T07:19:32.504Z,31.15
2022-12-03T07:22:00.605Z,32.60
2022-12-03T07:24:27.923Z,32.88
2022-12-03T07:26:55.051Z,30.40
2022-12-03T07:29:22.386Z,32.10
2022-12-03T07:31:49.404Z,31.70
2022-12-03T07:34:16.393Z,30.80
2022-12-03T07:36:43.517Z,30.67
2022-12-03T07:39:10.743Z,30.48
2022-12-03T07:41:37.668Z,31.77
2022-12-03T07:44:10.703Z,30.90
2022-12-03T07:46:41.021Z,29.92
2022-12-03T07:49:08.196Z,31.20
2022-12-03T07:51:35.858Z,31.40
2022-12-03T07:54:02.827Z,32.67
2022-12-03T07:56:29.830Z,31.95
2022-12-03T07:58:57.169Z,31.77
2022-12-03T08:01:24.161Z,29.88
2022-12-03T08:03:51.110Z,31.77
2022-12-03T08:06:18.080Z,30.92
2022-12-03T08:08:45.037Z,30.52
2022-12-03T08:11:16.867Z,31.63
2022-12-03T08:13:43.957Z,30.13
2022-12-03T08:16:22.376Z,30.23
2022-12-03T08:18:50.906Z,29.38
2022-12-03T08:21:20.812Z,29.85
2022-12-03T08:23:48.193Z,31.77
2022-12-03T08:26:25.024Z,32.15
2022-12-03T08:28:55.201Z,29.88
2022-12-03T08:31:32.258Z,31.33
2022-12-03T08:34:37.801Z,28.30
2022-12-03T08:37:18.630Z,30.90
2022-12-03T08:39:50.201Z,31.92
2022-12-03T08:45:39.519Z,31.33
2022-12-03T08:48:40.686Z,32.30
2022-12-03T08:51:25.266Z,30.45
2022-12-03T08:54:13.447Z,24.80
2022-12-03T08:59:31.629Z,31.05
2022-12-03T09:02:02.226Z,28.45
2022-12-03T09:04:47.393Z,29.25
2022-12-03T09:07:14.389Z,29.90
2022-12-03T09:09:41.449Z,29.05
2022-12-03T09:12:08.532Z,30.10
2022-12-03T09:14:35.572Z,31.00
2022-12-03T09:17:02.947Z,30.88
2022-12-03T09:19:31.239Z,30.55
2022-12-03T09:21:58.255Z,31.55
2022-12-03T09:24:25.516Z,31.10
2022-12-03T09:26:52.498Z,31.27
2022-12-03T09:29:20.572Z,30.92
2022-12-03T09:31:47.661Z,33.30
2022-12-03T09:34:14.706Z,32.63
2022-12-03T09:36:41.703Z,32.00
2022-12-03T09:39:08.727Z,33.55
2022-12-03T09:41:36.212Z,32.58
2022-12-03T09:44:04.746Z,33.42
2022-12-03T09:46:35.982Z,31.58
2022-12-03T09:49:05.087Z,33.28
2022-12-03T09:51:36.614Z,34.85
2022-12-03T09:54:07.115Z,34.45
2022-12-03T09:56:38.280Z,33.53
2022-12-03T09:59:16.118Z,34.17
2022-12-03T10:01:43.489Z,33.80
2022-12-03T10:04:11.085Z,33.63
2022-12-03T10:06:45.279Z,34.63
2022-12-03T10:09:20.844Z,33.92
2022-12-03T10:11:48.065Z,32.90
2022-12-03T10:14:18.836Z,33.95
2022-12-03T10:16:46.876Z,34.97
2022-12-03T10:19:27.418Z,32.50
2022-12-03T10:21:56.765Z,33.72
2022-12-03T10:24:35.057Z,34.10
2022-12-03T10:27:24.166Z,32.90
2022-12-03T10:32:49.545Z,38.15
2022-12-03T10:35:23.313Z,35.13
2022-12-03T10:37:56.327Z,43.53
2022-12-03T10:40:36.670Z,50.40
2022-12-03T10:43:18.877Z,37.33
2022-12-03T10:46:11.282Z,38.93
2022-12-03T10:48:38.847Z,42.90
2022-12-03T10:51:22.331Z,37.95
2022-12-03T10:53:50.927Z,37.03
2022-12-03T10:56:25.363Z,35.60
2022-12-03T10:58:53.079Z,37.55
2022-12-03T11:04:36.199Z,36.45
2022-12-03T11:07:14.415Z,35.75
2022-12-03T11:09:46.124Z,35.53
2022-12-03T11:12:25.719Z,36.00
2022-12-03T11:14:54.468Z,40.42
2022-12-03T11:17:52.091Z,37.38
2022-12-03T11:20:25.352Z,48.08
2022-12-03T11:22:57.990Z,41.15
2022-12-03T11:25:25.250Z,39.75
2022-12-03T11:28:12.708Z,40.58
2022-12-03T11:30:49.245Z,42.47
2022-12-03T11:33:32.140Z,42.97
2022-12-03T11:36:05.182Z,40.97
2022-12-03T11:38:38.290Z,39.20
2022-12-03T11:41:20.386Z,39.55
2022-12-03T11:43:53.538Z,42.00
2022-12-03T11:46:48.241Z,38.20
2022-12-03T11:49:35.335Z,41.08
2022-12-03T11:52:37.109Z,39.30
2022-12-03T11:55:24.827Z,41.67
2022-12-03T11:58:00.262Z,39.28
2022-12-03T12:00:27.685Z,38.75
2022-12-03T12:02:57.631Z,40.83
2022-12-03T12:08:19.805Z,39.03
2022-12-03T12:10:49.442Z,39.40
2022-12-03T12:13:31.055Z,39.78
2022-12-03T12:16:02.982Z,38.90
2022-12-03T12:18:42.725Z,40.10
2022-12-03T12:21:42.511Z,37.75
2022-12-03T12:24:41.298Z,39.30
2022-12-03T12:27:30.489Z,37.92
2022-12-03T12:30:15.192Z,38.00
2022-12-03T12:32:48.052Z,36.58
2022-12-03T12:38:00.873Z,33.58
2022-12-03T12:40:53.027Z,32.25
2022-12-03T12:46:46.167Z,33.47
2022-12-03T12:51:28.077Z,31.38
2022-12-03T12:53:57.322Z,30.73
2022-12-03T12:56:28.104Z,33.45
2022-12-03T12:58:59.366Z,32.75
2022-12-03T13:01:33.208Z,33.03
2022-12-03T13:04:00.783Z,31.30
2022-12-03T13:06:46.237Z,35.65
2022-12-03T13:09:25.915Z,32.20
2022-12-03T13:11:57.215Z,33.63
2022-12-03T13:17:19.695Z,32.92
2022-12-03T13:22:31.362Z,34.08
2022-12-03T13:25:32.553Z,35.55
2022-12-03T13:28:07.707Z,33.33
2022-12-03T13:30:42.241Z,35.78
2022-12-03T13:33:27.392Z,35.88
2022-12-03T13:35:58.502Z,34.25
2022-12-03T13:38:26.031Z,34.45
2022-12-03T13:41:07.457Z,35.45
2022-12-03T13:43:44.534Z,33.67
2022-12-03T13:49:02.112Z,35.85
2022-12-03T13:51:33.429Z,35.25
2022-12-03T13:54:00.867Z,34.88
2022-12-03T13:59:22.895Z,36.22
2022-12-03T14:01:51.749Z,35.40
2022-12-03T14:04:18.937Z,35.88
2022-12-03T14:06:45.955Z,34.13
2022-12-03T14:09:13.067Z,35.92
2022-12-03T14:11:58.800Z,35.75
2022-12-03T14:14:25.764Z,36.28
2022-12-03T14:16:58.190Z,37.45
2022-12-03T14:19:32.277Z,36.38
2022-12-03T14:22:00.337Z,35.88
2022-12-03T14:24:35.932Z,35.92
2022-12-03T14:27:03.110Z,37.28
2022-12-03T14:29:30.218Z,36.45
2022-12-03T14:32:02.533Z,35.33
2022-12-03T14:34:29.604Z,37.25
2022-12-03T14:36:58.023Z,35.90
2022-12-03T14:39:25.042Z,37.40
2022-12-03T14:42:10.791Z,36.55
2022-12-03T14:44:37.928Z,36.78
2022-12-03T14:47:05.099Z,36.22
2022-12-03T14:49:32.400Z,36.03
2022-12-03T14:51:59.584Z,38.30
2022-12-03T14:54:29.684Z,39.45
2022-12-03T14:56:56.983Z,38.08
2022-12-03T14:59:27.599Z,37.50
2022-12-03T15:01:55.381Z,37.80
2022-12-03T15:04:22.650Z,36.33
2022-12-03T15:06:49.831Z,37.80
2022-12-03T15:09:17.289Z,38.85
2022-12-03T15:11:46.297Z,38.05
2022-12-03T15:14:15.027Z,37.88
2022-12-03T15:16:42.184Z,38.90
2022-12-03T15:19:09.735Z,37.40
2022-12-03T15:21:36.863Z,37.28
2022-12-03T15:24:04.189Z,37.58
2022-12-03T15:26:31.336Z,37.28
2022-12-03T15:28:58.700Z,37.67
2022-12-03T15:31:25.883Z,36.47
2022-12-03T15:34:10.457Z,37.22
2022-12-03T15:36:37.599Z,37.00
2022-12-03T15:39:04.752Z,38.15
2022-12-03T15:41:32.629Z,36.90
2022-12-03T15:44:02.220Z,37.58
2022-12-03T15:46:31.621Z,37.63
2022-12-03T15:49:11.417Z,40.22
2022-12-03T15:59:55.793Z,40.55
2022-12-03T16:02:23.280Z,39.80
2022-12-03T16:04:50.349Z,37.10
2022-12-03T16:07:17.490Z,37.75
2022-12-03T16:09:44.529Z,41.72
2022-12-03T16:12:11.526Z,38.40
2022-12-03T16:14:38.548Z,37.60
2022-12-03T16:17:05.615Z,36.75
2022-12-03T16:19:33.073Z,36.72
2022-12-03T16:22:00.096Z,36.25
2022-12-03T16:27:09.188Z,35.65
2022-12-03T16:29:36.447Z,36.35
2022-12-03T16:32:03.789Z,35.92
2022-12-03T16:34:30.851Z,36.13
2022-12-03T16:36:57.840Z,37.90
2022-12-03T16:39:24.844Z,37.42
2022-12-03T16:41:52.163Z,37.83
2022-12-03T16:44:32.701Z,35.58
2022-12-03T16:47:01.528Z,35.63
2022-12-03T16:49:29.062Z,38.83
2022-12-03T16:54:39.804Z,38.03
2022-12-03T16:57:06.911Z,39.03
2022-12-03T16:59:34.124Z,38.83
2022-12-03T17:02:01.528Z,39.53
2022-12-03T17:04:28.559Z,38.55
2022-12-03T17:06:55.592Z,39.70
2022-12-03T17:09:22.557Z,41.05
2022-12-03T17:11:49.663Z,38.30
2022-12-03T17:14:17.248Z,39.35
2022-12-03T17:16:44.660Z,40.47
2022-12-03T17:19:11.627Z,41.13
2022-12-03T17:21:38.607Z,41.10
2022-12-03T17:24:06.037Z,41.60
2022-12-03T17:26:33.012Z,40.53
2022-12-03T17:28:59.990Z,41.30
2022-12-03T17:31:27.071Z,40.22
2022-12-03T17:33:57.389Z,43.83
2022-12-03T17:36:25.020Z,44.20
2022-12-03T17:38:52.230Z,43.33
2022-12-03T17:41:19.291Z,43.55
2022-12-03T17:43:46.296Z,41.85
2022-12-03T17:46:13.395Z,43.08
2022-12-03T18:01:15.308Z,47.05
2022-12-03T18:03:42.350Z,45.25
2022-12-03T18:06:09.429Z,41.90
2022-12-03T18:08:36.403Z,42.75
2022-12-03T18:11:03.435Z,41.65
2022-12-03T18:13:30.426Z,41.50
2022-12-03T18:15:57.455Z,42.33
2022-12-03T18:18:24.445Z,41.33
2022-12-03T18:20:53.705Z,40.28
2022-12-03T18:23:20.855Z,41.00
2022-12-03T18:25:47.793Z,42.67
2022-12-03T18:28:14.779Z,41.85
2022-12-03T18:30:42.218Z,41.60
2022-12-03T18:33:11.126Z,41.35
2022-12-03T18:35:38.180Z,47.92
2022-12-03T18:38:05.268Z,50.38
2022-12-03T18:40:32.281Z,43.00
2022-12-03T18:42:59.952Z,42.78
2022-12-03T18:45:26.909Z,43.88
2022-12-03T18:47:54.783Z,44.70
2022-12-03T18:50:21.890Z,44.05
2022-12-03T18:52:48.839Z,42.97
2022-12-03T18:55:20.001Z,42.80
2022-12-03T18:57:47.664Z,42.20
2022-12-03T19:00:15.703Z,43.17
2022-12-03T19:05:32.629Z,41.72
2022-12-03T19:08:00.114Z,40.65
2022-12-03T19:10:27.286Z,39.97
2022-12-03T19:12:54.223Z,39.42
2022-12-03T19:15:21.378Z,39.17
2022-12-03T19:17:49.932Z,39.33
2022-12-03T19:20:17.073Z,39.53
2022-12-03T19:22:44.031Z,39.33
2022-12-03T19:25:11.182Z,38.95
2022-12-03T19:27:38.238Z,39.92
2022-12-03T19:30:06.278Z,39.15
2022-12-03T19:32:35.230Z,37.30
2022-12-03T19:35:05.210Z,38.60
2022-12-03T19:37:35.305Z,39.03
2022-12-03T19:40:02.433Z,37.40
2022-12-03T19:42:31.138Z,37.90
2022-12-03T19:44:58.103Z,37.63
2022-12-03T19:47:25.559Z,38.30
2022-12-03T19:49:55.520Z,37.38
2022-12-03T19:52:22.847Z,37.33
2022-12-03T19:54:49.822Z,39.17
2022-12-03T19:57:23.101Z,42.78
2022-12-03T19:59:50.561Z,43.15
2022-12-03T20:02:17.646Z,44.10
2022-12-03T20:04:45.831Z,44.08
2022-12-03T20:07:12.813Z,42.60
2022-12-03T20:09:39.727Z,44.80
2022-12-03T20:12:07.076Z,43.95
2022-12-03T20:14:34.004Z,43.08
2022-12-03T20:17:00.994Z,48.72
2022-12-03T20:19:28.181Z,46.83
2022-12-03T20:22:00.709Z,46.05
2022-12-03T20:24:29.511Z,43.00
2022-12-03T20:26:56.517Z,42.50
2022-12-03T20:29:23.476Z,41.35
2022-12-03T20:31:50.503Z,41.78
2022-12-03T20:34:17.660Z,40.42
2022-12-03T20:36:45.511Z,41.72
2022-12-03T20:39:12.506Z,42.33
2022-12-03T20:41:39.460Z,42.22
2022-12-03T20:44:08.062Z,42.65
2022-12-03T20:46:36.203Z,44.00
2022-12-03T20:49:03.928Z,45.50
2022-12-03T20:51:31.675Z,42.35
2022-12-03T20:54:00.407Z,44.17
2022-12-03T20:56:42.081Z,41.03
2022-12-03T20:59:14.120Z,42.42
2022-12-03T21:01:42.626Z,43.60
2022-12-03T21:04:13.569Z,43.00
2022-12-03T21:06:42.418Z,41.97
2022-12-03T21:09:12.121Z,42.13
2022-12-03T21:11:42.399Z,41.05
2022-12-03T21:14:11.334Z,38.60
2022-12-03T21:19:35.287Z,40.22
2022-12-03T21:22:02.301Z,39.17
2022-12-03T21:24:30.001Z,40.00
2022-12-03T21:26:57.209Z,40.17
2022-12-03T21:29:24.733Z,40.33
2022-12-03T21:31:51.705Z,41.25
2022-12-03T21:34:18.907Z,40.28
2022-12-03T21:36:46.127Z,40.38
2022-12-03T21:52:15.527Z,46.10
2022-12-03T21:54:42.583Z,43.88
2022-12-03T21:57:09.605Z,41.65
2022-12-03T21:59:36.665Z,41.38
2022-12-03T22:02:06.862Z,41.08
2022-12-03T22:04:34.077Z,39.33
2022-12-03T22:07:01.038Z,40.92
2022-12-03T22:09:28.229Z,40.40
2022-12-03T22:11:57.010Z,40.17
2022-12-03T22:14:24.041Z,39.08
2022-12-03T22:16:51.037Z,40.22
2022-12-03T22:19:18.015Z,41.55
2022-12-03T22:21:46.548Z,40.80
2022-12-03T22:24:13.644Z,39.80
2022-12-03T22:26:41.559Z,41.15
2022-12-03T22:29:11.942Z,39.53
2022-12-03T22:31:39.213Z,41.72
2022-12-03T22:34:06.418Z,44.60
2022-12-03T22:36:33.436Z,43.50
2022-12-03T22:39:00.474Z,42.40
2022-12-03T22:41:27.467Z,41.40
2022-12-03T22:43:54.442Z,43.28
2022-12-03T22:46:21.510Z,41.67
2022-12-03T22:48:48.633Z,43.47
2022-12-03T22:51:24.990Z,41.53
2022-12-03T22:54:01.466Z,42.10
2022-12-03T22:56:30.909Z,42.28
2022-12-03T22:58:59.555Z,44.47
2022-12-03T23:01:34.542Z,41.47
2022-12-03T23:04:02.141Z,44.70
2022-12-03T23:06:31.180Z,44.95
2022-12-03T23:08:59.426Z,45.47
2022-12-03T23:11:27.669Z,44.25
2022-12-03T23:13:55.077Z,44.95
2022-12-03T23:16:30.024Z,42.50
2022-12-03T23:19:02.636Z,42.78
2022-12-03T23:21:34.053Z,41.65
2022-12-03T23:24:04.426Z,43.47
2022-12-03T23:26:37.046Z,43.35
2022-12-03T23:29:06.028Z,44.75
2022-12-03T23:31:34.642Z,43.13
2022-12-03T23:34:02.774Z,42.33
2022-12-03T23:36:32.689Z,43.00
2022-12-03T23:39:00.614Z,43.22
2022-12-03T23:41:28.385Z,43.25
2022-12-03T23:43:56.746Z,43.10
2022-12-03T23:46:27.276Z,42.00
2022-12-03T23:48:54.733Z,41.55
2022-12-03T23:51:24.669Z,42.30
2022-12-03T23:53:54.357Z,42.88
2022-12-03T23:56:27.116Z,42.38
2022-12-03T23:58:54.295Z,42.75
